sensor_id;sensor_type;location;lat;lon;timestamp;P1;durP1;ratioP1;P2;durP2;ratioP2
43311;SDS011;30041;48.300;16.352;2022-07-29T00:01:55;2.70;;;2.30;;
43311;SDS011;30041;48.300;16.352;2022-07-29T00:04:21;2.55;;;2.05;;
43311;SDS011;30041;48.300;16.352;2022-07-29T00:06:46;3.70;;;2.00;;
43311;SDS011;30041;48.300;16.352;2022-07-29T00:09:12;3.78;;;2.20;;
43311;SDS011;30041;48.300;16.352;2022-07-29T00:11:38;3.35;;;2.28;;
43311;SDS011;30041;48.300;16.352;2022-07-29T00:14:04;2.67;;;2.20;;
43311;SDS011;30041;48.300;16.352;2022-07-29T00:16:29;4.13;;;2.13;;
43311;SDS011;30041;48.300;16.352;2022-07-29T00:18:55;3.00;;;2.28;;
43311;SDS011;30041;48.300;16.352;2022-07-29T00:21:21;3.22;;;2.35;;
43311;SDS011;30041;48.300;16.352;2022-07-29T00:23:46;3.40;;;2.40;;
43311;SDS011;30041;48.300;16.352;2022-07-29T00:26:12;3.10;;;2.20;;
43311;SDS011;30041;48.300;16.352;2022-07-29T00:28:38;3.42;;;2.47;;
43311;SDS011;30041;48.300;16.352;2022-07-29T00:31:03;2.72;;;2.00;;
43311;SDS011;30041;48.300;16.352;2022-07-29T00:33:29;3.53;;;2.35;;
43311;SDS011;30041;48.300;16.352;2022-07-29T00:35:55;3.63;;;2.42;;
43311;SDS011;30041;48.300;16.352;2022-07-29T00:38:20;3.00;;;2.28;;
43311;SDS011;30041;48.300;16.352;2022-07-29T00:40:46;2.75;;;2.00;;
43311;SDS011;30041;48.300;16.352;2022-07-29T00:43:12;2.72;;;2.22;;
43311;SDS011;30041;48.300;16.352;2022-07-29T00:45:39;3.00;;;2.22;;
43311;SDS011;30041;48.300;16.352;2022-07-29T00:48:06;2.58;;;1.95;;
43311;SDS011;30041;48.300;16.352;2022-07-29T00:50:32;3.83;;;2.45;;
43311;SDS011;30041;48.300;16.352;2022-07-29T00:52:58;2.58;;;2.17;;
43311;SDS011;30041;48.300;16.352;2022-07-29T00:55:24;4.10;;;2.28;;
43311;SDS011;30041;48.300;16.352;2022-07-29T00:57:50;3.25;;;2.50;;
43311;SDS011;30041;48.300;16.352;2022-07-29T01:00:18;4.30;;;2.40;;
43311;SDS011;30041;48.300;16.352;2022-07-29T01:02:46;3.17;;;2.20;;
43311;SDS011;30041;48.300;16.352;2022-07-29T01:05:14;2.88;;;2.30;;
43311;SDS011;30041;48.300;16.352;2022-07-29T01:07:46;4.75;;;2.20;;
43311;SDS011;30041;48.300;16.352;2022-07-29T01:10:14;3.15;;;2.20;;
43311;SDS011;30041;48.300;16.352;2022-07-29T01:12:42;3.17;;;2.15;;
43311;SDS011;30041;48.300;16.352;2022-07-29T01:15:10;2.92;;;2.20;;
43311;SDS011;30041;48.300;16.352;2022-07-29T01:20:30;2.83;;;2.30;;
43311;SDS011;30041;48.300;16.352;2022-07-29T01:25:54;4.22;;;2.38;;
43311;SDS011;30041;48.300;16.352;2022-07-29T01:28:41;3.30;;;2.38;;
43311;SDS011;30041;48.300;16.352;2022-07-29T01:31:12;2.58;;;2.22;;
43311;SDS011;30041;48.300;16.352;2022-07-29T01:33:45;2.85;;;2.10;;
43311;SDS011;30041;48.300;16.352;2022-07-29T01:36:29;3.25;;;2.10;;
43311;SDS011;30041;48.300;16.352;2022-07-29T01:39:18;3.58;;;2.20;;
43311;SDS011;30041;48.300;16.352;2022-07-29T01:42:10;3.05;;;2.15;;
43311;SDS011;30041;48.300;16.352;2022-07-29T01:44:59;3.15;;;2.15;;
43311;SDS011;30041;48.300;16.352;2022-07-29T01:48:11;2.65;;;2.05;;
43311;SDS011;30041;48.300;16.352;2022-07-29T01:50:46;4.03;;;2.22;;
43311;SDS011;30041;48.300;16.352;2022-07-29T01:53:29;3.53;;;2.30;;
43311;SDS011;30041;48.300;16.352;2022-07-29T01:56:03;3.53;;;2.47;;
43311;SDS011;30041;48.300;16.352;2022-07-29T01:58:31;3.55;;;2.20;;
43311;SDS011;30041;48.300;16.352;2022-07-29T02:01:00;2.78;;;2.00;;
43311;SDS011;30041;48.300;16.352;2022-07-29T02:03:28;3.85;;;2.53;;
43311;SDS011;30041;48.300;16.352;2022-07-29T02:05:56;3.53;;;2.50;;
43311;SDS011;30041;48.300;16.352;2022-07-29T02:08:26;2.97;;;2.10;;
43311;SDS011;30041;48.300;16.352;2022-07-29T02:10:55;3.03;;;2.10;;
43311;SDS011;30041;48.300;16.352;2022-07-29T02:13:22;3.40;;;2.22;;
43311;SDS011;30041;48.300;16.352;2022-07-29T02:15:50;2.80;;;2.03;;
43311;SDS011;30041;48.300;16.352;2022-07-29T02:18:18;3.28;;;2.50;;
43311;SDS011;30041;48.300;16.352;2022-07-29T02:20:48;3.38;;;2.40;;
43311;SDS011;30041;48.300;16.352;2022-07-29T02:23:18;2.90;;;1.98;;
43311;SDS011;30041;48.300;16.352;2022-07-29T02:25:48;2.60;;;2.10;;
43311;SDS011;30041;48.300;16.352;2022-07-29T02:28:17;3.38;;;2.10;;
43311;SDS011;30041;48.300;16.352;2022-07-29T02:30:44;3.17;;;2.10;;
43311;SDS011;30041;48.300;16.352;2022-07-29T02:33:12;3.33;;;2.33;;
43311;SDS011;30041;48.300;16.352;2022-07-29T02:35:39;3.35;;;2.22;;
43311;SDS011;30041;48.300;16.352;2022-07-29T02:38:07;3.25;;;2.10;;
43311;SDS011;30041;48.300;16.352;2022-07-29T02:40:37;3.42;;;2.28;;
43311;SDS011;30041;48.300;16.352;2022-07-29T02:43:05;2.83;;;2.30;;
43311;SDS011;30041;48.300;16.352;2022-07-29T02:45:33;2.97;;;2.40;;
43311;SDS011;30041;48.300;16.352;2022-07-29T02:47:59;2.92;;;2.20;;
43311;SDS011;30041;48.300;16.352;2022-07-29T02:50:31;3.33;;;2.38;;
43311;SDS011;30041;48.300;16.352;2022-07-29T02:53:04;3.47;;;2.33;;
43311;SDS011;30041;48.300;16.352;2022-07-29T02:55:36;2.58;;;2.30;;
43311;SDS011;30041;48.300;16.352;2022-07-29T02:58:06;2.25;;;1.92;;
43311;SDS011;30041;48.300;16.352;2022-07-29T03:00:37;2.85;;;2.30;;
43311;SDS011;30041;48.300;16.352;2022-07-29T03:03:05;3.53;;;2.35;;
43311;SDS011;30041;48.300;16.352;2022-07-29T03:05:36;3.03;;;2.33;;
43311;SDS011;30041;48.300;16.352;2022-07-29T03:08:03;3.45;;;2.30;;
43311;SDS011;30041;48.300;16.352;2022-07-29T03:10:31;3.95;;;2.22;;
43311;SDS011;30041;48.300;16.352;2022-07-29T03:12:56;3.92;;;2.20;;
43311;SDS011;30041;48.300;16.352;2022-07-29T03:15:23;2.80;;;2.20;;
43311;SDS011;30041;48.300;16.352;2022-07-29T03:17:50;2.97;;;2.05;;
43311;SDS011;30041;48.300;16.352;2022-07-29T03:20:17;3.28;;;2.38;;
43311;SDS011;30041;48.300;16.352;2022-07-29T03:22:44;3.22;;;2.33;;
43311;SDS011;30041;48.300;16.352;2022-07-29T03:25:10;3.33;;;2.17;;
43311;SDS011;30041;48.300;16.352;2022-07-29T03:27:36;3.65;;;2.10;;
43311;SDS011;30041;48.300;16.352;2022-07-29T03:30:02;2.70;;;2.10;;
43311;SDS011;30041;48.300;16.352;2022-07-29T03:32:29;3.50;;;2.05;;
43311;SDS011;30041;48.300;16.352;2022-07-29T03:34:54;2.72;;;2.20;;
43311;SDS011;30041;48.300;16.352;2022-07-29T03:37:20;4.93;;;2.30;;
43311;SDS011;30041;48.300;16.352;2022-07-29T03:39:46;4.28;;;2.40;;
43311;SDS011;30041;48.300;16.352;2022-07-29T03:42:15;2.60;;;1.85;;
43311;SDS011;30041;48.300;16.352;2022-07-29T03:44:42;3.08;;;2.20;;
43311;SDS011;30041;48.300;16.352;2022-07-29T03:47:10;3.65;;;2.45;;
43311;SDS011;30041;48.300;16.352;2022-07-29T03:49:39;3.13;;;2.20;;
43311;SDS011;30041;48.300;16.352;2022-07-29T03:52:05;3.17;;;2.25;;
43311;SDS011;30041;48.300;16.352;2022-07-29T03:54:32;3.08;;;2.30;;
43311;SDS011;30041;48.300;16.352;2022-07-29T03:56:59;4.15;;;2.50;;
43311;SDS011;30041;48.300;16.352;2022-07-29T03:59:26;2.75;;;2.38;;
43311;SDS011;30041;48.300;16.352;2022-07-29T04:01:52;5.95;;;2.47;;
43311;SDS011;30041;48.300;16.352;2022-07-29T04:04:20;4.07;;;2.35;;
43311;SDS011;30041;48.300;16.352;2022-07-29T04:06:47;4.00;;;2.30;;
43311;SDS011;30041;48.300;16.352;2022-07-29T04:09:12;3.35;;;2.25;;
43311;SDS011;30041;48.300;16.352;2022-07-29T04:11:39;3.20;;;2.33;;
43311;SDS011;30041;48.300;16.352;2022-07-29T04:14:06;3.47;;;2.40;;
43311;SDS011;30041;48.300;16.352;2022-07-29T04:16:32;3.28;;;2.63;;
43311;SDS011;30041;48.300;16.352;2022-07-29T04:18:58;3.45;;;2.30;;
43311;SDS011;30041;48.300;16.352;2022-07-29T04:21:24;2.95;;;2.22;;
43311;SDS011;30041;48.300;16.352;2022-07-29T04:23:50;3.22;;;2.20;;
43311;SDS011;30041;48.300;16.352;2022-07-29T04:26:16;2.38;;;2.10;;
43311;SDS011;30041;48.300;16.352;2022-07-29T04:28:42;3.00;;;2.10;;
43311;SDS011;30041;48.300;16.352;2022-07-29T04:31:08;3.40;;;2.40;;
43311;SDS011;30041;48.300;16.352;2022-07-29T04:33:34;2.95;;;2.10;;
43311;SDS011;30041;48.300;16.352;2022-07-29T04:36:00;2.90;;;2.40;;
43311;SDS011;30041;48.300;16.352;2022-07-29T04:38:25;2.95;;;2.30;;
43311;SDS011;30041;48.300;16.352;2022-07-29T04:40:51;3.17;;;2.40;;
43311;SDS011;30041;48.300;16.352;2022-07-29T04:43:17;3.20;;;2.10;;
43311;SDS011;30041;48.300;16.352;2022-07-29T04:45:42;3.17;;;2.42;;
43311;SDS011;30041;48.300;16.352;2022-07-29T04:48:08;2.85;;;2.38;;
43311;SDS011;30041;48.300;16.352;2022-07-29T04:50:34;4.18;;;2.20;;
43311;SDS011;30041;48.300;16.352;2022-07-29T04:53:02;3.42;;;2.38;;
43311;SDS011;30041;48.300;16.352;2022-07-29T04:55:28;2.78;;;2.20;;
43311;SDS011;30041;48.300;16.352;2022-07-29T04:57:54;2.50;;;2.22;;
43311;SDS011;30041;48.300;16.352;2022-07-29T05:00:19;3.22;;;2.63;;
43311;SDS011;30041;48.300;16.352;2022-07-29T05:02:45;4.45;;;2.45;;
43311;SDS011;30041;48.300;16.352;2022-07-29T05:05:11;3.10;;;2.50;;
43311;SDS011;30041;48.300;16.352;2022-07-29T05:07:37;3.60;;;2.35;;
43311;SDS011;30041;48.300;16.352;2022-07-29T05:10:03;2.75;;;2.20;;
43311;SDS011;30041;48.300;16.352;2022-07-29T05:12:29;3.15;;;2.20;;
43311;SDS011;30041;48.300;16.352;2022-07-29T05:14:54;3.42;;;2.30;;
43311;SDS011;30041;48.300;16.352;2022-07-29T05:17:20;3.85;;;2.05;;
43311;SDS011;30041;48.300;16.352;2022-07-29T05:19:46;2.65;;;2.30;;
43311;SDS011;30041;48.300;16.352;2022-07-29T05:22:11;4.15;;;2.33;;
43311;SDS011;30041;48.300;16.352;2022-07-29T05:24:37;3.60;;;2.30;;
43311;SDS011;30041;48.300;16.352;2022-07-29T05:27:03;4.22;;;2.55;;
43311;SDS011;30041;48.300;16.352;2022-07-29T05:29:28;2.78;;;2.47;;
43311;SDS011;30041;48.300;16.352;2022-07-29T05:31:54;2.72;;;2.28;;
43311;SDS011;30041;48.300;16.352;2022-07-29T05:34:20;3.80;;;2.45;;
43311;SDS011;30041;48.300;16.352;2022-07-29T05:36:45;2.72;;;2.35;;
43311;SDS011;30041;48.300;16.352;2022-07-29T05:39:11;3.38;;;2.10;;
43311;SDS011;30041;48.300;16.352;2022-07-29T05:41:37;3.53;;;2.40;;
43311;SDS011;30041;48.300;16.352;2022-07-29T05:44:02;3.45;;;2.50;;
43311;SDS011;30041;48.300;16.352;2022-07-29T05:46:28;3.70;;;2.45;;
43311;SDS011;30041;48.300;16.352;2022-07-29T05:48:54;2.80;;;2.33;;
43311;SDS011;30041;48.300;16.352;2022-07-29T05:51:19;4.45;;;2.25;;
43311;SDS011;30041;48.300;16.352;2022-07-29T05:53:45;2.85;;;2.22;;
43311;SDS011;30041;48.300;16.352;2022-07-29T05:56:10;3.38;;;2.25;;
43311;SDS011;30041;48.300;16.352;2022-07-29T05:58:36;3.42;;;2.30;;
43311;SDS011;30041;48.300;16.352;2022-07-29T06:01:02;3.58;;;2.20;;
43311;SDS011;30041;48.300;16.352;2022-07-29T06:03:28;2.47;;;2.17;;
43311;SDS011;30041;48.300;16.352;2022-07-29T06:05:54;2.92;;;2.10;;
43311;SDS011;30041;48.300;16.352;2022-07-29T06:08:19;3.28;;;2.28;;
43311;SDS011;30041;48.300;16.352;2022-07-29T06:10:45;4.35;;;2.08;;
43311;SDS011;30041;48.300;16.352;2022-07-29T06:13:11;4.50;;;2.60;;
43311;SDS011;30041;48.300;16.352;2022-07-29T06:15:37;4.68;;;2.40;;
43311;SDS011;30041;48.300;16.352;2022-07-29T06:18:03;3.88;;;2.30;;
43311;SDS011;30041;48.300;16.352;2022-07-29T06:20:29;3.08;;;2.40;;
43311;SDS011;30041;48.300;16.352;2022-07-29T06:22:55;3.25;;;2.20;;
43311;SDS011;30041;48.300;16.352;2022-07-29T06:25:21;3.70;;;2.50;;
43311;SDS011;30041;48.300;16.352;2022-07-29T06:27:47;3.55;;;2.40;;
43311;SDS011;30041;48.300;16.352;2022-07-29T06:30:13;3.78;;;2.30;;
43311;SDS011;30041;48.300;16.352;2022-07-29T06:32:38;3.50;;;2.35;;
43311;SDS011;30041;48.300;16.352;2022-07-29T06:35:04;3.67;;;2.22;;
43311;SDS011;30041;48.300;16.352;2022-07-29T06:37:30;2.75;;;2.20;;
43311;SDS011;30041;48.300;16.352;2022-07-29T06:39:56;3.53;;;2.10;;
43311;SDS011;30041;48.300;16.352;2022-07-29T06:42:22;2.83;;;2.15;;
43311;SDS011;30041;48.300;16.352;2022-07-29T06:44:47;2.85;;;2.40;;
43311;SDS011;30041;48.300;16.352;2022-07-29T06:47:13;3.28;;;2.22;;
43311;SDS011;30041;48.300;16.352;2022-07-29T06:49:38;4.03;;;2.38;;
43311;SDS011;30041;48.300;16.352;2022-07-29T06:52:04;4.15;;;2.10;;
43311;SDS011;30041;48.300;16.352;2022-07-29T06:54:30;3.20;;;2.17;;
43311;SDS011;30041;48.300;16.352;2022-07-29T06:56:56;3.10;;;2.30;;
43311;SDS011;30041;48.300;16.352;2022-07-29T06:59:21;2.70;;;2.10;;
43311;SDS011;30041;48.300;16.352;2022-07-29T07:01:47;3.42;;;2.05;;
43311;SDS011;30041;48.300;16.352;2022-07-29T07:04:13;3.63;;;2.35;;
43311;SDS011;30041;48.300;16.352;2022-07-29T07:06:38;2.60;;;2.10;;
43311;SDS011;30041;48.300;16.352;2022-07-29T07:09:04;2.65;;;2.15;;
43311;SDS011;30041;48.300;16.352;2022-07-29T07:11:30;3.80;;;2.15;;
43311;SDS011;30041;48.300;16.352;2022-07-29T07:13:56;2.40;;;2.10;;
43311;SDS011;30041;48.300;16.352;2022-07-29T07:16:22;2.63;;;2.13;;
43311;SDS011;30041;48.300;16.352;2022-07-29T07:18:47;2.90;;;1.90;;
43311;SDS011;30041;48.300;16.352;2022-07-29T07:21:13;5.35;;;3.22;;
43311;SDS011;30041;48.300;16.352;2022-07-29T07:23:39;6.03;;;4.03;;
43311;SDS011;30041;48.300;16.352;2022-07-29T07:26:05;8.05;;;3.88;;
43311;SDS011;30041;48.300;16.352;2022-07-29T07:28:31;5.15;;;3.67;;
43311;SDS011;30041;48.300;16.352;2022-07-29T07:30:56;7.78;;;4.00;;
43311;SDS011;30041;48.300;16.352;2022-07-29T07:33:22;5.55;;;3.55;;
43311;SDS011;30041;48.300;16.352;2022-07-29T07:35:48;9.55;;;3.83;;
43311;SDS011;30041;48.300;16.352;2022-07-29T07:38:13;5.70;;;3.65;;
43311;SDS011;30041;48.300;16.352;2022-07-29T07:40:39;8.05;;;4.03;;
43311;SDS011;30041;48.300;16.352;2022-07-29T07:43:05;7.20;;;3.70;;
43311;SDS011;30041;48.300;16.352;2022-07-29T07:45:31;8.43;;;4.20;;
43311;SDS011;30041;48.300;16.352;2022-07-29T07:47:56;5.55;;;3.70;;
43311;SDS011;30041;48.300;16.352;2022-07-29T07:50:22;5.75;;;3.67;;
43311;SDS011;30041;48.300;16.352;2022-07-29T07:52:48;7.10;;;4.05;;
43311;SDS011;30041;48.300;16.352;2022-07-29T07:55:19;7.30;;;3.90;;
43311;SDS011;30041;48.300;16.352;2022-07-29T07:57:45;12.15;;;3.92;;
43311;SDS011;30041;48.300;16.352;2022-07-29T08:00:12;6.57;;;3.80;;
43311;SDS011;30041;48.300;16.352;2022-07-29T08:02:39;11.20;;;4.05;;
43311;SDS011;30041;48.300;16.352;2022-07-29T08:05:06;16.92;;;4.20;;
43311;SDS011;30041;48.300;16.352;2022-07-29T08:07:32;14.05;;;3.85;;
43311;SDS011;30041;48.300;16.352;2022-07-29T08:09:58;13.27;;;4.28;;
43311;SDS011;30041;48.300;16.352;2022-07-29T08:12:23;9.77;;;4.03;;
43311;SDS011;30041;48.300;16.352;2022-07-29T08:14:49;10.45;;;4.32;;
43311;SDS011;30041;48.300;16.352;2022-07-29T08:17:15;9.77;;;4.07;;
43311;SDS011;30041;48.300;16.352;2022-07-29T08:19:40;11.25;;;4.30;;
43311;SDS011;30041;48.300;16.352;2022-07-29T08:22:06;14.95;;;4.38;;
43311;SDS011;30041;48.300;16.352;2022-07-29T08:24:32;10.10;;;4.40;;
43311;SDS011;30041;48.300;16.352;2022-07-29T08:26:57;10.40;;;3.95;;
43311;SDS011;30041;48.300;16.352;2022-07-29T08:29:23;12.23;;;4.05;;
43311;SDS011;30041;48.300;16.352;2022-07-29T08:31:48;14.55;;;4.25;;
43311;SDS011;30041;48.300;16.352;2022-07-29T08:34:14;7.78;;;4.00;;
43311;SDS011;30041;48.300;16.352;2022-07-29T08:36:40;10.50;;;4.22;;
43311;SDS011;30041;48.300;16.352;2022-07-29T08:39:05;8.05;;;4.40;;
43311;SDS011;30041;48.300;16.352;2022-07-29T08:41:31;9.88;;;4.05;;
43311;SDS011;30041;48.300;16.352;2022-07-29T08:43:57;8.57;;;3.90;;
43311;SDS011;30041;48.300;16.352;2022-07-29T08:46:22;5.78;;;3.65;;
43311;SDS011;30041;48.300;16.352;2022-07-29T08:48:48;6.45;;;3.78;;
43311;SDS011;30041;48.300;16.352;2022-07-29T08:51:15;9.30;;;3.92;;
43311;SDS011;30041;48.300;16.352;2022-07-29T08:53:43;10.00;;;3.92;;
43311;SDS011;30041;48.300;16.352;2022-07-29T08:56:11;6.53;;;4.13;;
43311;SDS011;30041;48.300;16.352;2022-07-29T08:58:38;13.90;;;4.65;;
43311;SDS011;30041;48.300;16.352;2022-07-29T09:01:04;9.55;;;4.00;;
43311;SDS011;30041;48.300;16.352;2022-07-29T09:03:32;8.43;;;4.03;;
43311;SDS011;30041;48.300;16.352;2022-07-29T09:06:01;7.32;;;3.90;;
43311;SDS011;30041;48.300;16.352;2022-07-29T09:08:28;6.95;;;3.60;;
43311;SDS011;30041;48.300;16.352;2022-07-29T09:10:55;7.28;;;3.78;;
43311;SDS011;30041;48.300;16.352;2022-07-29T09:13:22;7.65;;;3.97;;
43311;SDS011;30041;48.300;16.352;2022-07-29T09:15:48;6.75;;;3.67;;
43311;SDS011;30041;48.300;16.352;2022-07-29T09:20:58;5.45;;;3.90;;
43311;SDS011;30041;48.300;16.352;2022-07-29T09:23:25;10.35;;;4.10;;
43311;SDS011;30041;48.300;16.352;2022-07-29T09:25:50;8.05;;;4.00;;
43311;SDS011;30041;48.300;16.352;2022-07-29T09:28:16;7.35;;;3.60;;
43311;SDS011;30041;48.300;16.352;2022-07-29T09:30:50;7.40;;;3.42;;
43311;SDS011;30041;48.300;16.352;2022-07-29T09:33:21;10.68;;;4.15;;
43311;SDS011;30041;48.300;16.352;2022-07-29T09:36:03;5.38;;;3.55;;
43311;SDS011;30041;48.300;16.352;2022-07-29T09:38:30;7.10;;;3.47;;
43311;SDS011;30041;48.300;16.352;2022-07-29T09:40:57;9.65;;;3.95;;
43311;SDS011;30041;48.300;16.352;2022-07-29T09:43:27;7.05;;;3.92;;
43311;SDS011;30041;48.300;16.352;2022-07-29T09:45:53;8.23;;;4.00;;
43311;SDS011;30041;48.300;16.352;2022-07-29T09:48:21;6.90;;;4.15;;
43311;SDS011;30041;48.300;16.352;2022-07-29T09:50:48;7.57;;;3.83;;
43311;SDS011;30041;48.300;16.352;2022-07-29T09:56:01;8.80;;;4.05;;
43311;SDS011;30041;48.300;16.352;2022-07-29T09:58:28;14.60;;;4.40;;
43311;SDS011;30041;48.300;16.352;2022-07-29T10:00:54;7.93;;;4.40;;
43311;SDS011;30041;48.300;16.352;2022-07-29T10:03:20;6.00;;;3.65;;
43311;SDS011;30041;48.300;16.352;2022-07-29T10:06:03;5.15;;;3.70;;
43311;SDS011;30041;48.300;16.352;2022-07-29T10:08:35;12.18;;;4.07;;
43311;SDS011;30041;48.300;16.352;2022-07-29T10:11:11;15.30;;;4.10;;
43311;SDS011;30041;48.300;16.352;2022-07-29T10:13:38;10.57;;;4.30;;
43311;SDS011;30041;48.300;16.352;2022-07-29T10:16:06;8.52;;;3.97;;
43311;SDS011;30041;48.300;16.352;2022-07-29T10:18:32;12.63;;;4.00;;
43311;SDS011;30041;48.300;16.352;2022-07-29T10:20:58;7.40;;;3.55;;
43311;SDS011;30041;48.300;16.352;2022-07-29T10:23:25;8.10;;;3.83;;
43311;SDS011;30041;48.300;16.352;2022-07-29T10:25:52;9.30;;;3.70;;
43311;SDS011;30041;48.300;16.352;2022-07-29T10:28:18;8.68;;;3.63;;
43311;SDS011;30041;48.300;16.352;2022-07-29T10:30:49;11.85;;;4.10;;
43311;SDS011;30041;48.300;16.352;2022-07-29T10:41:56;9.80;;;3.80;;
43311;SDS011;30041;48.300;16.352;2022-07-29T10:44:31;7.45;;;3.78;;
43311;SDS011;30041;48.300;16.352;2022-07-29T10:46:58;8.00;;;3.90;;
43311;SDS011;30041;48.300;16.352;2022-07-29T10:49:25;10.77;;;3.70;;
43311;SDS011;30041;48.300;16.352;2022-07-29T10:57:16;7.70;;;3.25;;
43311;SDS011;30041;48.300;16.352;2022-07-29T11:02:45;6.72;;;3.30;;
43311;SDS011;30041;48.300;16.352;2022-07-29T11:10:36;3.63;;;2.88;;
43311;SDS011;30041;48.300;16.352;2022-07-29T11:13:05;6.10;;;3.40;;
43311;SDS011;30041;48.300;16.352;2022-07-29T11:18:19;6.38;;;3.35;;
43311;SDS011;30041;48.300;16.352;2022-07-29T11:20:46;7.53;;;3.40;;
43311;SDS011;30041;48.300;16.352;2022-07-29T11:23:17;6.03;;;3.30;;
43311;SDS011;30041;48.300;16.352;2022-07-29T11:25:44;5.05;;;3.05;;
43311;SDS011;30041;48.300;16.352;2022-07-29T11:28:30;5.57;;;2.90;;
43311;SDS011;30041;48.300;16.352;2022-07-29T11:30:56;4.82;;;3.05;;
43311;SDS011;30041;48.300;16.352;2022-07-29T11:33:26;3.88;;;2.97;;
43311;SDS011;30041;48.300;16.352;2022-07-29T11:36:13;3.78;;;2.92;;
43311;SDS011;30041;48.300;16.352;2022-07-29T11:38:40;4.78;;;3.08;;
43311;SDS011;30041;48.300;16.352;2022-07-29T11:41:22;7.78;;;2.90;;
43311;SDS011;30041;48.300;16.352;2022-07-29T11:43:58;3.95;;;3.10;;
43311;SDS011;30041;48.300;16.352;2022-07-29T11:49:13;5.20;;;2.65;;
43311;SDS011;30041;48.300;16.352;2022-07-29T11:51:55;4.63;;;2.70;;
43311;SDS011;30041;48.300;16.352;2022-07-29T11:54:23;5.88;;;2.80;;
43311;SDS011;30041;48.300;16.352;2022-07-29T11:56:51;4.20;;;2.83;;
43311;SDS011;30041;48.300;16.352;2022-07-29T11:59:20;4.57;;;2.90;;
43311;SDS011;30041;48.300;16.352;2022-07-29T12:01:56;3.90;;;2.83;;
43311;SDS011;30041;48.300;16.352;2022-07-29T12:04:23;4.50;;;2.90;;
43311;SDS011;30041;48.300;16.352;2022-07-29T12:06:50;4.63;;;2.70;;
43311;SDS011;30041;48.300;16.352;2022-07-29T12:09:17;3.55;;;2.85;;
43311;SDS011;30041;48.300;16.352;2022-07-29T12:11:43;4.10;;;2.72;;
43311;SDS011;30041;48.300;16.352;2022-07-29T12:14:23;4.82;;;2.78;;
43311;SDS011;30041;48.300;16.352;2022-07-29T12:16:53;3.67;;;3.10;;
43311;SDS011;30041;48.300;16.352;2022-07-29T12:19:19;5.00;;;3.05;;
43311;SDS011;30041;48.300;16.352;2022-07-29T12:21:51;3.88;;;2.88;;
43311;SDS011;30041;48.300;16.352;2022-07-29T12:24:20;3.67;;;2.70;;
43311;SDS011;30041;48.300;16.352;2022-07-29T12:26:50;6.00;;;3.00;;
43311;SDS011;30041;48.300;16.352;2022-07-29T12:29:19;4.40;;;2.95;;
43311;SDS011;30041;48.300;16.352;2022-07-29T12:31:45;4.43;;;2.80;;
43311;SDS011;30041;48.300;16.352;2022-07-29T12:34:14;3.78;;;2.90;;
43311;SDS011;30041;48.300;16.352;2022-07-29T12:36:41;6.93;;;2.60;;
43311;SDS011;30041;48.300;16.352;2022-07-29T12:39:08;6.35;;;3.10;;
43311;SDS011;30041;48.300;16.352;2022-07-29T12:41:35;6.60;;;2.80;;
43311;SDS011;30041;48.300;16.352;2022-07-29T12:44:01;3.97;;;2.70;;
43311;SDS011;30041;48.300;16.352;2022-07-29T12:46:27;5.72;;;2.90;;
43311;SDS011;30041;48.300;16.352;2022-07-29T12:48:53;4.65;;;2.60;;
43311;SDS011;30041;48.300;16.352;2022-07-29T12:51:41;3.90;;;2.55;;
43311;SDS011;30041;48.300;16.352;2022-07-29T12:54:10;4.47;;;2.50;;
43311;SDS011;30041;48.300;16.352;2022-07-29T12:56:37;3.75;;;2.67;;
43311;SDS011;30041;48.300;16.352;2022-07-29T12:59:20;4.05;;;2.90;;
43311;SDS011;30041;48.300;16.352;2022-07-29T13:01:47;3.50;;;2.78;;
43311;SDS011;30041;48.300;16.352;2022-07-29T13:04:30;4.13;;;2.80;;
43311;SDS011;30041;48.300;16.352;2022-07-29T13:06:58;5.00;;;2.85;;
43311;SDS011;30041;48.300;16.352;2022-07-29T13:09:38;3.65;;;2.53;;
43311;SDS011;30041;48.300;16.352;2022-07-29T13:12:06;3.47;;;2.55;;
43311;SDS011;30041;48.300;16.352;2022-07-29T13:14:40;5.13;;;2.75;;
43311;SDS011;30041;48.300;16.352;2022-07-29T13:17:17;3.72;;;2.72;;
43311;SDS011;30041;48.300;16.352;2022-07-29T13:19:45;4.68;;;2.90;;
43311;SDS011;30041;48.300;16.352;2022-07-29T13:22:15;4.55;;;3.20;;
43311;SDS011;30041;48.300;16.352;2022-07-29T13:24:45;3.70;;;2.78;;
43311;SDS011;30041;48.300;16.352;2022-07-29T13:27:11;3.78;;;2.70;;
43311;SDS011;30041;48.300;16.352;2022-07-29T13:29:39;4.15;;;2.63;;
43311;SDS011;30041;48.300;16.352;2022-07-29T13:32:08;3.65;;;2.70;;
43311;SDS011;30041;48.300;16.352;2022-07-29T13:34:33;3.67;;;2.67;;
43311;SDS011;30041;48.300;16.352;2022-07-29T13:36:59;4.10;;;2.63;;
43311;SDS011;30041;48.300;16.352;2022-07-29T13:39:25;3.47;;;2.45;;
43311;SDS011;30041;48.300;16.352;2022-07-29T13:41:51;3.50;;;2.45;;
43311;SDS011;30041;48.300;16.352;2022-07-29T13:44:17;3.00;;;2.45;;
43311;SDS011;30041;48.300;16.352;2022-07-29T13:46:42;3.47;;;2.38;;
43311;SDS011;30041;48.300;16.352;2022-07-29T13:49:08;3.85;;;2.50;;
43311;SDS011;30041;48.300;16.352;2022-07-29T13:51:33;4.30;;;2.45;;
43311;SDS011;30041;48.300;16.352;2022-07-29T13:53:59;3.88;;;2.53;;
43311;SDS011;30041;48.300;16.352;2022-07-29T13:56:24;3.60;;;2.67;;
43311;SDS011;30041;48.300;16.352;2022-07-29T13:58:50;3.97;;;2.70;;
43311;SDS011;30041;48.300;16.352;2022-07-29T14:01:16;2.90;;;2.42;;
43311;SDS011;30041;48.300;16.352;2022-07-29T14:03:41;3.67;;;2.90;;
43311;SDS011;30041;48.300;16.352;2022-07-29T14:06:07;3.85;;;2.40;;
43311;SDS011;30041;48.300;16.352;2022-07-29T14:08:32;3.55;;;2.65;;
43311;SDS011;30041;48.300;16.352;2022-07-29T14:10:58;3.25;;;2.60;;
43311;SDS011;30041;48.300;16.352;2022-07-29T14:13:24;3.45;;;2.50;;
43311;SDS011;30041;48.300;16.352;2022-07-29T14:15:49;3.92;;;2.40;;
43311;SDS011;30041;48.300;16.352;2022-07-29T14:18:15;2.70;;;2.40;;
43311;SDS011;30041;48.300;16.352;2022-07-29T14:20:41;3.22;;;2.53;;
43311;SDS011;30041;48.300;16.352;2022-07-29T14:23:06;4.20;;;2.30;;
43311;SDS011;30041;48.300;16.352;2022-07-29T14:25:32;2.80;;;2.30;;
43311;SDS011;30041;48.300;16.352;2022-07-29T14:27:58;4.85;;;2.97;;
43311;SDS011;30041;48.300;16.352;2022-07-29T14:30:23;3.17;;;2.20;;
43311;SDS011;30041;48.300;16.352;2022-07-29T14:32:49;3.83;;;2.35;;
43311;SDS011;30041;48.300;16.352;2022-07-29T14:35:15;3.65;;;2.53;;
43311;SDS011;30041;48.300;16.352;2022-07-29T14:37:40;3.60;;;2.50;;
43311;SDS011;30041;48.300;16.352;2022-07-29T14:40:07;2.83;;;2.38;;
43311;SDS011;30041;48.300;16.352;2022-07-29T14:42:34;4.00;;;2.63;;
43311;SDS011;30041;48.300;16.352;2022-07-29T14:44:59;3.72;;;2.60;;
43311;SDS011;30041;48.300;16.352;2022-07-29T14:47:25;3.20;;;2.35;;
43311;SDS011;30041;48.300;16.352;2022-07-29T14:49:51;3.42;;;2.63;;
43311;SDS011;30041;48.300;16.352;2022-07-29T14:52:16;3.95;;;2.33;;
43311;SDS011;30041;48.300;16.352;2022-07-29T14:54:42;3.58;;;2.60;;
43311;SDS011;30041;48.300;16.352;2022-07-29T14:57:08;3.75;;;2.30;;
43311;SDS011;30041;48.300;16.352;2022-07-29T14:59:33;3.03;;;2.33;;
43311;SDS011;30041;48.300;16.352;2022-07-29T15:01:59;3.95;;;2.40;;
43311;SDS011;30041;48.300;16.352;2022-07-29T15:04:25;4.15;;;2.78;;
43311;SDS011;30041;48.300;16.352;2022-07-29T15:06:51;3.70;;;2.65;;
43311;SDS011;30041;48.300;16.352;2022-07-29T15:09:16;2.70;;;2.20;;
43311;SDS011;30041;48.300;16.352;2022-07-29T15:11:42;4.68;;;2.47;;
43311;SDS011;30041;48.300;16.352;2022-07-29T15:14:08;4.47;;;2.67;;
43311;SDS011;30041;48.300;16.352;2022-07-29T15:16:35;3.55;;;2.40;;